createdAt,value
2023-02-23T00:02:05.885Z,-0.50
2023-02-23T00:04:33.175Z,-0.50
2023-02-23T00:07:02.469Z,-1.70
2023-02-23T00:09:35.926Z,-0.50
2023-02-23T00:12:08.102Z,-0.40
2023-02-23T00:14:38.050Z,-0.40
2023-02-23T00:17:11.020Z,-0.50
2023-02-23T00:19:46.921Z,-0.50
2023-02-23T00:22:20.115Z,-0.50
2023-02-23T00:24:48.040Z,-0.50
2023-02-23T00:27:18.696Z,-1.70
2023-02-23T00:29:49.538Z,-0.60
2023-02-23T00:32:20.152Z,-1.70
2023-02-23T00:34:51.410Z,-0.40
2023-02-23T00:37:19.438Z,-2.40
2023-02-23T00:39:46.464Z,-0.60
2023-02-23T00:42:13.811Z,-0.60
2023-02-23T00:44:40.896Z,-0.70
2023-02-23T00:47:07.935Z,-1.40
2023-02-23T00:49:35.005Z,-2.00
2023-02-23T00:52:02.034Z,-0.60
2023-02-23T00:54:31.901Z,-0.80
2023-02-23T00:56:59.022Z,-1.20
2023-02-23T00:59:25.986Z,-1.30
2023-02-23T01:01:55.428Z,-2.00
2023-02-23T01:04:26.016Z,-1.20
2023-02-23T01:06:53.067Z,-1.20
2023-02-23T01:09:28.285Z,-0.40
2023-02-23T01:11:57.196Z,-0.90
2023-02-23T01:14:24.985Z,-1.10
2023-02-23T01:16:52.014Z,-2.20
2023-02-23T01:19:19.119Z,-0.90
2023-02-23T01:21:46.712Z,-0.90
2023-02-23T01:24:14.284Z,-1.90
2023-02-23T01:26:44.462Z,-1.00
2023-02-23T01:29:15.370Z,-1.10
2023-02-23T01:31:45.756Z,-2.20
2023-02-23T01:34:14.902Z,-1.10
2023-02-23T01:36:48.298Z,-1.10
2023-02-23T01:39:20.800Z,-1.20
2023-02-23T01:41:48.035Z,-1.10
2023-02-23T01:44:54.805Z,-1.30
2023-02-23T01:47:21.926Z,-1.10
2023-02-23T01:49:51.098Z,-2.00
2023-02-23T01:52:19.687Z,-2.50
2023-02-23T01:54:52.097Z,-1.20
2023-02-23T01:57:22.273Z,-1.20
2023-02-23T01:59:51.163Z,-1.40
2023-02-23T02:02:21.260Z,-1.30
2023-02-23T02:04:52.296Z,-1.30
2023-02-23T02:07:23.950Z,-1.40
2023-02-23T02:10:14.618Z,-1.30
2023-02-23T02:12:45.005Z,-1.30
2023-02-23T02:15:17.631Z,-1.30
2023-02-23T02:18:24.593Z,-1.30
2023-02-23T02:21:31.349Z,-1.20
2023-02-23T02:24:32.667Z,-1.30
2023-02-23T02:27:39.449Z,-1.40
2023-02-23T02:30:46.362Z,-1.90
2023-02-23T02:33:53.297Z,-2.20
2023-02-23T02:36:50.249Z,-1.50
2023-02-23T02:39:46.741Z,-1.30
2023-02-23T02:42:36.677Z,-2.80
2023-02-23T02:45:43.370Z,-1.40
2023-02-23T02:48:50.081Z,-1.40
2023-02-23T02:51:56.766Z,-1.40
2023-02-23T02:54:37.074Z,-1.40
2023-02-23T02:57:05.704Z,-1.40
2023-02-23T03:00:02.245Z,-1.50
2023-02-23T03:02:51.677Z,-1.50
2023-02-23T03:05:44.007Z,-1.80
2023-02-23T03:09:10.627Z,-1.40
2023-02-23T03:12:08.160Z,-1.50
2023-02-23T03:15:23.532Z,-1.50
2023-02-23T03:18:32.317Z,-1.40
2023-02-23T03:21:28.892Z,-1.50
2023-02-23T03:24:44.716Z,-2.60
2023-02-23T03:28:02.542Z,-2.90
2023-02-23T03:31:08.804Z,-2.70
2023-02-23T03:34:13.161Z,-1.60
2023-02-23T03:37:10.276Z,-1.40
2023-02-23T03:40:03.549Z,-2.50
2023-02-23T03:42:56.439Z,-2.50
2023-02-23T03:45:45.624Z,-1.60
2023-02-23T03:48:35.476Z,-1.40
2023-02-23T03:51:26.827Z,-2.10
2023-02-23T03:54:37.755Z,-1.50
2023-02-23T03:57:29.856Z,-1.50
2023-02-23T04:00:21.497Z,-2.10
2023-02-23T04:03:12.796Z,-1.50
2023-02-23T04:06:02.043Z,-1.60
2023-02-23T04:08:55.605Z,-1.60
2023-02-23T04:11:54.148Z,-2.80
2023-02-23T04:14:37.126Z,-3.20
2023-02-23T04:17:06.098Z,-1.70
2023-02-23T04:19:33.157Z,-1.60
2023-02-23T04:22:00.168Z,-1.60
2023-02-23T04:24:27.199Z,-1.60
2023-02-23T04:26:54.268Z,-1.70
2023-02-23T04:29:21.368Z,-1.60
2023-02-23T04:31:48.881Z,-1.60
2023-02-23T04:34:15.987Z,-1.60
2023-02-23T04:36:43.017Z,-1.60
2023-02-23T04:39:09.993Z,-1.60
2023-02-23T04:41:37.148Z,-1.70
2023-02-23T04:44:05.079Z,-1.60
2023-02-23T04:46:32.529Z,-1.60
2023-02-23T04:48:59.672Z,-1.70
2023-02-23T04:51:32.195Z,-1.70
2023-02-23T04:53:59.597Z,-1.70
2023-02-23T04:56:26.722Z,-1.70
2023-02-23T04:58:53.765Z,-1.70
2023-02-23T05:01:22.632Z,-1.80
2023-02-23T05:03:50.476Z,-1.70
2023-02-23T05:06:23.826Z,-1.70
2023-02-23T05:08:50.865Z,-3.20
2023-02-23T05:11:18.342Z,-1.80
2023-02-23T05:13:45.530Z,-1.70
2023-02-23T05:16:12.570Z,-1.80
2023-02-23T05:18:39.750Z,-1.80
2023-02-23T05:21:08.598Z,-1.80
2023-02-23T05:23:36.677Z,-0.40
2023-02-23T05:26:20.373Z,-1.80
2023-02-23T05:28:48.863Z,-1.90
2023-02-23T05:31:16.036Z,-1.90
2023-02-23T05:33:44.052Z,-1.90
2023-02-23T05:36:13.074Z,-1.90
2023-02-23T05:38:41.206Z,-1.90
2023-02-23T05:41:10.417Z,-1.90
2023-02-23T05:43:37.744Z,-1.90
2023-02-23T05:46:09.135Z,-1.90
2023-02-23T05:48:36.356Z,-1.90
2023-02-23T05:51:04.595Z,-1.90
2023-02-23T05:53:32.201Z,-1.90
2023-02-23T05:55:59.239Z,-1.90
2023-02-23T05:58:26.358Z,-1.90
2023-02-23T06:00:53.489Z,-2.00
2023-02-23T06:03:20.753Z,-1.90
2023-02-23T06:05:53.627Z,-1.90
2023-02-23T06:08:21.055Z,-1.90
2023-02-23T06:10:48.194Z,-1.90
2023-02-23T06:13:15.573Z,-1.90
2023-02-23T06:15:44.229Z,-1.90
2023-02-23T06:18:11.462Z,-1.90
2023-02-23T06:20:40.503Z,-1.90
2023-02-23T06:23:07.665Z,-1.90
2023-02-23T06:25:34.942Z,-2.00
2023-02-23T06:28:02.074Z,-1.90
2023-02-23T06:30:30.017Z,-1.90
2023-02-23T06:32:57.066Z,-2.00
2023-02-23T06:35:24.323Z,-2.00
2023-02-23T06:37:51.650Z,-1.90
2023-02-23T06:40:18.946Z,-1.90
2023-02-23T06:42:46.041Z,-1.90
2023-02-23T06:45:13.461Z,-2.10
2023-02-23T06:47:41.101Z,-1.90
2023-02-23T06:50:09.312Z,-1.90
2023-02-23T06:52:36.346Z,-1.80
2023-02-23T06:55:03.958Z,-2.70
2023-02-23T06:57:30.978Z,-1.70
2023-02-23T06:59:58.219Z,-1.70
2023-02-23T07:02:31.396Z,-1.80
2023-02-23T07:05:13.052Z,-1.10
2023-02-23T07:07:45.057Z,-1.90
2023-02-23T07:10:21.428Z,-2.20
2023-02-23T07:13:00.322Z,-2.80
2023-02-23T07:15:37.475Z,-2.50
2023-02-23T07:18:19.272Z,-0.40
2023-02-23T07:21:03.191Z,-1.60
2023-02-23T07:23:37.519Z,-0.50
2023-02-23T07:26:11.619Z,-0.40
2023-02-23T07:28:47.034Z,-1.40
2023-02-23T07:31:23.207Z,-0.50
2023-02-23T07:33:57.007Z,-1.30
2023-02-23T07:36:24.899Z,-1.30
2023-02-23T07:38:52.574Z,-1.40
2023-02-23T07:41:19.979Z,-2.50
2023-02-23T07:43:56.233Z,-2.60
2023-02-23T07:46:26.899Z,-3.00
2023-02-23T07:48:59.689Z,-0.40
2023-02-23T07:51:26.810Z,-2.30
2023-02-23T07:53:55.279Z,-2.50
2023-02-23T07:56:22.394Z,-2.20
2023-02-23T07:58:54.294Z,-2.20
2023-02-23T08:01:24.261Z,-1.10
2023-02-23T08:03:51.385Z,-0.70
2023-02-23T08:06:19.543Z,-1.10
2023-02-23T08:08:46.784Z,-2.20
2023-02-23T08:11:13.922Z,-1.00
2023-02-23T08:13:41.020Z,-1.00
2023-02-23T08:16:08.513Z,-2.00
2023-02-23T08:18:35.808Z,-0.90
2023-02-23T08:21:04.747Z,-0.90
2023-02-23T08:23:33.247Z,-0.90
2023-02-23T08:26:01.634Z,-0.90
2023-02-23T08:28:29.488Z,-0.80
2023-02-23T08:30:56.679Z,-0.80
2023-02-23T08:33:32.563Z,-0.70
2023-02-23T08:36:06.253Z,0.60
2023-02-23T08:38:38.405Z,0.60
2023-02-23T08:41:26.787Z,-1.70
2023-02-23T08:44:08.394Z,-1.60
2023-02-23T08:46:35.491Z,-1.70
2023-02-23T08:49:03.178Z,-0.40
2023-02-23T08:51:52.342Z,-0.40
2023-02-23T08:54:20.512Z,-0.40
2023-02-23T08:56:47.565Z,-0.40
2023-02-23T08:59:15.234Z,-1.70
2023-02-23T09:01:43.247Z,-0.30
2023-02-23T09:04:10.416Z,-0.20
2023-02-23T09:06:37.879Z,-0.70
2023-02-23T09:09:04.982Z,-0.10
2023-02-23T09:11:32.097Z,-0.10
2023-02-23T09:14:02.268Z,0.00
2023-02-23T09:16:29.426Z,-0.10
2023-02-23T09:19:41.896Z,0.00
2023-02-23T09:22:14.379Z,-0.70
2023-02-23T09:24:47.506Z,0.00
2023-02-23T09:27:17.931Z,-1.20
2023-02-23T09:29:45.010Z,-0.10
2023-02-23T09:32:12.435Z,-0.60
2023-02-23T09:34:39.572Z,-1.20
2023-02-23T09:37:16.666Z,-0.10
2023-02-23T09:39:49.021Z,0.30
2023-02-23T09:42:40.419Z,0.60
2023-02-23T09:45:34.420Z,0.40
2023-02-23T09:48:22.774Z,0.10
2023-02-23T09:50:53.110Z,0.50
2023-02-23T09:53:43.151Z,-0.80
2023-02-23T09:56:36.523Z,0.60
2023-02-23T09:59:12.340Z,0.60
2023-02-23T10:02:28.658Z,-0.30
2023-02-23T10:07:55.545Z,0.30
2023-02-23T10:10:51.052Z,0.60
2023-02-23T10:14:03.258Z,2.10
2023-02-23T10:16:50.298Z,1.20
2023-02-23T10:19:47.201Z,0.40
2023-02-23T10:22:16.033Z,0.60
2023-02-23T10:24:52.400Z,0.30
2023-02-23T10:27:29.407Z,0.40
2023-02-23T10:30:10.142Z,0.50
2023-02-23T10:33:26.883Z,2.80
2023-02-23T10:36:36.181Z,2.10
2023-02-23T10:39:15.251Z,1.60
2023-02-23T10:42:17.670Z,1.80
2023-02-23T10:45:24.564Z,0.80
2023-02-23T10:56:02.684Z,1.10
2023-02-23T10:59:31.756Z,2.00
2023-02-23T11:02:45.147Z,1.30
2023-02-23T11:05:56.089Z,2.50
2023-02-23T11:08:44.005Z,2.60
2023-02-23T11:15:50.980Z,2.30
2023-02-23T11:22:17.286Z,3.70
2023-02-23T11:28:28.085Z,4.40
2023-02-23T11:33:11.269Z,4.90
2023-02-23T11:46:50.338Z,5.00
2023-02-23T11:52:49.916Z,4.40
2023-02-23T12:02:17.535Z,4.10
2023-02-23T12:09:16.940Z,4.40
2023-02-23T12:26:41.052Z,5.40
2023-02-23T12:29:46.399Z,3.20
2023-02-23T12:36:27.938Z,2.60
2023-02-23T12:43:03.943Z,3.40
2023-02-23T12:45:58.758Z,1.90
2023-02-23T12:49:21.858Z,3.50
2023-02-23T12:57:47.901Z,1.40
2023-02-23T13:04:52.026Z,3.00
2023-02-23T13:08:29.172Z,2.90
2023-02-23T13:22:46.803Z,3.00
2023-02-23T13:26:04.289Z,2.00
2023-02-23T13:30:01.642Z,3.00
2023-02-23T13:32:45.574Z,2.80
2023-02-23T13:35:30.147Z,2.30
2023-02-23T13:38:40.426Z,2.20
2023-02-23T13:45:28.283Z,4.10
2023-02-23T13:51:59.527Z,2.30
2023-02-23T13:58:07.482Z,3.40
2023-02-23T14:02:16.377Z,2.80
2023-02-23T14:03:50.935Z,3.30
2023-02-23T14:18:59.597Z,2.20
2023-02-23T14:25:43.724Z,2.60
2023-02-23T14:29:07.739Z,2.00
2023-02-23T14:32:30.312Z,3.50
2023-02-23T14:39:01.275Z,3.30
2023-02-23T14:45:08.139Z,4.10
2023-02-23T14:48:11.122Z,3.20
2023-02-23T14:51:21.294Z,3.20
2023-02-23T14:57:12.087Z,3.10
2023-02-23T15:00:09.552Z,3.20
2023-02-23T15:02:54.255Z,2.30
2023-02-23T15:08:42.999Z,3.10
2023-02-23T15:17:36.155Z,3.50
2023-02-23T15:20:24.233Z,2.20
2023-02-23T15:27:04.890Z,2.80
2023-02-23T15:29:44.684Z,2.70
2023-02-23T15:32:31.058Z,2.70
2023-02-23T15:36:03.478Z,2.50
2023-02-23T15:45:02.934Z,3.40
2023-02-23T15:47:53.500Z,3.20
2023-02-23T15:50:38.450Z,2.50
2023-02-23T15:53:23.483Z,1.30
2023-02-23T15:56:03.778Z,1.80
2023-02-23T16:01:58.534Z,2.50
2023-02-23T16:04:36.670Z,2.50
2023-02-23T16:08:01.833Z,2.50
2023-02-23T16:10:43.298Z,1.70
2023-02-23T16:22:42.403Z,1.10
2023-02-23T16:25:33.503Z,1.80
2023-02-23T16:28:14.371Z,2.60
2023-02-23T16:31:22.314Z,1.80
2023-02-23T16:36:57.762Z,1.50
2023-02-23T16:39:45.252Z,1.40
2023-02-23T16:42:33.341Z,1.50
2023-02-23T16:45:01.764Z,1.30
2023-02-23T16:47:42.557Z,1.60
2023-02-23T16:50:20.020Z,1.70
2023-02-23T16:52:55.986Z,1.20
2023-02-23T16:55:26.148Z,1.80
2023-02-23T16:57:57.776Z,1.30
2023-02-23T17:03:31.416Z,2.30
2023-02-23T17:08:58.155Z,1.80
2023-02-23T17:11:28.515Z,3.30
2023-02-23T17:13:55.554Z,1.30
2023-02-23T17:16:23.255Z,2.50
2023-02-23T17:18:50.497Z,2.20
2023-02-23T17:21:23.929Z,2.40
2023-02-23T17:23:52.611Z,2.70
2023-02-23T17:26:23.165Z,2.50
2023-02-23T17:28:54.475Z,1.40
2023-02-23T17:31:35.912Z,2.10
2023-02-23T17:34:03.305Z,2.50
2023-02-23T17:36:30.419Z,2.20
2023-02-23T17:38:59.318Z,1.30
2023-02-23T17:41:30.277Z,2.60
2023-02-23T17:43:58.464Z,2.50
2023-02-23T17:46:26.631Z,3.70
2023-02-23T17:48:56.439Z,1.50
2023-02-23T17:51:26.440Z,2.70
2023-02-23T17:53:53.961Z,2.60
2023-02-23T17:56:21.219Z,1.90
2023-02-23T17:58:48.573Z,1.90
2023-02-23T18:01:16.510Z,1.20
2023-02-23T18:03:47.925Z,1.40
2023-02-23T18:06:16.976Z,2.70
2023-02-23T18:08:45.486Z,2.10
2023-02-23T18:11:12.728Z,2.70
2023-02-23T18:13:39.795Z,1.70
2023-02-23T18:16:09.576Z,1.40
2023-02-23T18:18:42.350Z,3.40
2023-02-23T18:21:22.884Z,3.40
2023-02-23T18:23:51.387Z,3.00
2023-02-23T18:26:24.316Z,3.20
2023-02-23T18:28:58.888Z,1.90
2023-02-23T18:31:33.749Z,3.00
2023-02-23T18:34:02.103Z,2.90
2023-02-23T18:36:32.833Z,2.80
2023-02-23T18:39:01.229Z,2.90
2023-02-23T18:41:31.209Z,2.90
2023-02-23T18:44:06.120Z,2.80
2023-02-23T18:46:36.648Z,2.90
2023-02-23T18:49:04.361Z,2.90
2023-02-23T18:51:33.253Z,1.70
2023-02-23T18:54:02.768Z,2.70
2023-02-23T18:56:29.853Z,3.10
2023-02-23T18:59:00.045Z,3.00
2023-02-23T19:01:34.598Z,2.50
2023-02-23T19:04:02.785Z,2.20
2023-02-23T19:06:33.203Z,2.60
2023-02-23T19:09:03.455Z,3.10
2023-02-23T19:11:33.918Z,2.20
2023-02-23T19:14:04.296Z,2.90
2023-02-23T19:16:32.303Z,2.00
2023-02-23T19:19:00.047Z,2.20
2023-02-23T19:21:27.786Z,3.10
2023-02-23T19:24:02.548Z,3.10
2023-02-23T19:26:30.833Z,2.50
2023-02-23T19:28:58.807Z,2.00
2023-02-23T19:31:31.349Z,2.50
2023-02-23T19:34:40.515Z,3.00
2023-02-23T19:37:09.164Z,3.10
2023-02-23T19:39:36.745Z,3.20
2023-02-23T19:42:04.071Z,3.20
2023-02-23T19:44:31.182Z,3.10
2023-02-23T19:46:58.353Z,3.20
2023-02-23T19:49:25.915Z,3.20
2023-02-23T19:51:53.166Z,3.30
2023-02-23T19:54:20.756Z,3.20
2023-02-23T19:56:50.186Z,2.60
2023-02-23T19:59:17.298Z,4.50
2023-02-23T20:01:45.983Z,3.10
2023-02-23T20:04:13.196Z,3.20
2023-02-23T20:06:45.085Z,3.10
2023-02-23T20:09:12.491Z,2.20
2023-02-23T20:11:40.661Z,3.20
2023-02-23T20:14:08.274Z,2.90
2023-02-23T20:16:35.876Z,3.20
2023-02-23T20:19:04.006Z,3.30
2023-02-23T20:21:32.656Z,3.40
2023-02-23T20:24:05.653Z,3.30
2023-02-23T20:26:35.511Z,2.70
2023-02-23T20:29:04.310Z,2.30
2023-02-23T20:31:35.394Z,2.60
2023-02-23T20:34:06.386Z,3.20
2023-02-23T20:36:33.819Z,3.20
2023-02-23T20:39:01.285Z,2.10
2023-02-23T20:41:32.551Z,3.30
2023-02-23T20:44:01.305Z,3.30
2023-02-23T20:46:31.131Z,2.30
2023-02-23T20:48:59.459Z,3.40
2023-02-23T20:51:27.534Z,2.30
2023-02-23T20:53:54.649Z,2.40
2023-02-23T20:56:22.230Z,2.80
2023-02-23T20:58:56.150Z,2.60
2023-02-23T21:01:27.852Z,3.10
2023-02-23T21:04:00.661Z,3.30
2023-02-23T21:06:30.967Z,4.40
2023-02-23T21:09:03.928Z,3.40
2023-02-23T21:11:33.237Z,3.30
2023-02-23T21:14:00.653Z,2.60
2023-02-23T21:16:32.409Z,2.20
2023-02-23T21:19:06.900Z,3.30
2023-02-23T21:21:57.926Z,2.20
2023-02-23T21:25:36.665Z,2.40
2023-02-23T21:28:03.848Z,3.90
2023-02-23T21:30:32.785Z,2.10
2023-02-23T21:33:00.349Z,3.50
2023-02-23T21:35:29.636Z,2.90
2023-02-23T21:37:57.345Z,2.90
2023-02-23T21:40:25.040Z,3.40
2023-02-23T21:42:52.662Z,3.30
2023-02-23T21:45:22.361Z,3.40
2023-02-23T21:47:49.838Z,3.30
2023-02-23T21:50:23.102Z,2.70
2023-02-23T21:52:54.145Z,3.20
2023-02-23T21:55:24.466Z,3.40
2023-02-23T21:57:54.659Z,3.30
2023-02-23T22:00:21.959Z,3.40
2023-02-23T22:02:55.888Z,2.20
2023-02-23T22:05:23.154Z,3.20
2023-02-23T22:08:02.353Z,3.50
2023-02-23T22:10:32.062Z,1.60
2023-02-23T22:13:01.083Z,3.20
2023-02-23T22:15:34.438Z,3.30
2023-02-23T22:18:05.090Z,2.70
2023-02-23T22:20:32.324Z,3.10
2023-02-23T22:23:04.543Z,3.10
2023-02-23T22:25:37.612Z,3.40
2023-02-23T22:28:09.800Z,3.30
2023-02-23T22:30:39.411Z,3.60
2023-02-23T22:33:06.765Z,2.00
2023-02-23T22:35:39.804Z,3.70
2023-02-23T22:38:06.789Z,3.20
2023-02-23T22:40:37.370Z,2.70
2023-02-23T22:43:06.362Z,3.20
2023-02-23T22:45:35.250Z,3.30
2023-02-23T22:48:05.774Z,3.10
2023-02-23T22:50:34.810Z,2.30
2023-02-23T22:53:02.745Z,2.20
2023-02-23T22:55:40.487Z,3.30
2023-02-23T22:58:09.323Z,2.40
2023-02-23T23:00:36.525Z,3.40
2023-02-23T23:03:06.099Z,3.30
2023-02-23T23:05:38.691Z,3.10
2023-02-23T23:08:08.713Z,3.20
2023-02-23T23:10:38.960Z,2.50
2023-02-23T23:13:06.273Z,2.40
2023-02-23T23:15:33.364Z,1.90
2023-02-23T23:18:00.501Z,2.50
2023-02-23T23:20:30.578Z,1.70
2023-02-23T23:22:57.623Z,3.20
2023-02-23T23:25:24.864Z,3.20
2023-02-23T23:27:54.951Z,2.30
2023-02-23T23:30:26.109Z,2.80
2023-02-23T23:32:53.648Z,3.30
2023-02-23T23:35:22.415Z,3.20
2023-02-23T23:37:51.758Z,2.00
2023-02-23T23:40:24.792Z,1.60
2023-02-23T23:42:52.115Z,3.40
2023-02-23T23:45:24.434Z,3.40
2023-02-23T23:47:51.696Z,3.30
2023-02-23T23:50:18.935Z,2.10
2023-02-23T23:52:50.605Z,3.10
2023-02-23T23:55:19.074Z,2.10
2023-02-23T23:57:46.504Z,3.70
